Time;durP1;ratioP1;P1;durP2;ratioP2;P2;SDS_P1;SDS_P2;PMS_P1;PMS_P2;Temp;Humidity;BMP_temperature;BMP_pressure;BME280_temperature;BME280_humidity;BME280_pressure;Samples;Min_cycle;Max_cycle;Signal;HPM_P1;HPM_P2
2022/10/06 00:00:53;;;;;;;4.38;0.98;;;14.00;99.90;;;;;;5052514;28;20044;-90
2022/10/06 00:03:22;;;;;;;2.40;1.02;;;14.10;99.90;;;;;;5069660;28;20451;-90
2022/10/06 00:05:49;;;;;;;6.45;1.17;;;14.00;99.90;;;;;;5069771;28;20129;-90
2022/10/06 00:08:16;;;;;;;4.03;0.90;;;14.00;99.90;;;;;;5052603;28;20405;-90
2022/10/06 00:10:41;;;;;;;7.80;1.70;;;13.90;99.90;;;;;;5052830;28;20040;-90
2022/10/06 00:13:07;;;;;;;3.03;0.73;;;13.90;99.90;;;;;;5069198;28;20036;-90
2022/10/06 00:15:33;;;;;;;8.35;0.98;;;13.90;99.90;;;;;;5052711;28;20036;-90
2022/10/06 00:17:59;;;;;;;5.18;0.90;;;13.90;99.90;;;;;;5070079;28;20037;-90
2022/10/06 00:20:28;;;;;;;7.72;1.70;;;13.90;99.90;;;;;;5069867;28;20086;-90
2022/10/06 00:22:55;;;;;;;5.88;1.63;;;13.90;99.90;;;;;;5052463;28;20040;-90
2022/10/06 00:25:23;;;;;;;7.82;1.55;;;13.90;99.90;;;;;;5069845;28;20053;-90
2022/10/06 00:27:50;;;;;;;7.10;1.63;;;13.90;99.90;;;;;;5053301;28;20040;-90
2022/10/06 00:30:21;;;;;;;3.67;0.98;;;13.90;99.90;;;;;;5069403;28;20040;-90
2022/10/06 00:32:51;;;;;;;6.22;1.02;;;13.80;99.90;;;;;;5069764;28;20090;-90
2022/10/06 00:35:17;;;;;;;8.65;1.20;;;13.70;99.90;;;;;;5069989;28;20430;-90
2022/10/06 00:37:43;;;;;;;6.07;1.25;;;13.70;99.90;;;;;;5069300;28;20036;-90
2022/10/06 00:40:09;;;;;;;5.25;0.95;;;13.70;99.90;;;;;;5069567;28;20387;-90
2022/10/06 00:42:55;;;;;;;5.68;0.95;;;13.70;99.90;;;;;;5069687;28;20049;-90
2022/10/06 00:45:29;;;;;;;7.00;1.63;;;13.70;99.90;;;;;;5053461;28;20532;-91
2022/10/06 00:48:00;;;;;;;8.00;2.00;;;13.70;99.90;;;;;;5056442;28;20105;-90
2022/10/06 00:50:25;;;;;;;3.38;0.82;;;13.70;99.90;;;;;;5056236;28;20080;-90
2022/10/06 00:52:51;;;;;;;6.97;1.08;;;13.70;99.90;;;;;;5055650;28;20079;-90
2022/10/06 00:55:19;;;;;;;8.38;1.58;;;13.70;99.90;;;;;;5073359;28;20514;-90
2022/10/06 00:57:45;;;;;;;6.95;1.35;;;13.70;99.90;;;;;;5056265;28;20068;-90
2022/10/06 01:00:11;;;;;;;4.07;0.80;;;13.70;99.90;;;;;;5072496;28;20044;-90
2022/10/06 01:02:47;;;;;;;4.68;0.98;;;13.60;99.90;;;;;;5072375;28;20045;-90
2022/10/06 01:05:21;;;;;;;4.20;1.02;;;13.60;99.90;;;;;;5073010;28;20055;-90
2022/10/06 01:07:47;;;;;;;4.82;1.08;;;13.60;99.90;;;;;;5072325;28;20525;-89
2022/10/06 01:10:12;;;;;;;6.00;0.80;;;13.50;99.90;;;;;;5056159;28;20036;-90
2022/10/06 01:12:38;;;;;;;6.93;1.58;;;13.50;99.90;;;;;;5072597;28;20039;-90
2022/10/06 01:15:05;;;;;;;11.88;2.30;;;13.50;99.90;;;;;;5055551;28;20513;-90
2022/10/06 01:17:38;;;;;;;4.88;0.75;;;13.50;99.90;;;;;;5072737;28;20509;-90
2022/10/06 01:20:14;;;;;;;4.40;1.10;;;13.40;99.90;;;;;;5072668;28;20510;-90
2022/10/06 01:22:45;;;;;;;5.10;1.02;;;13.30;99.90;;;;;;5055513;28;20043;-90
2022/10/06 01:25:16;;;;;;;6.22;1.05;;;13.30;99.90;;;;;;5055762;28;20117;-90
2022/10/06 01:27:44;;;;;;;8.90;1.80;;;13.20;99.90;;;;;;5072631;28;20510;-90
2022/10/06 01:30:15;;;;;;;10.98;1.80;;;13.20;99.90;;;;;;5071983;28;20040;-90
2022/10/06 01:32:41;;;;;;;6.43;1.50;;;13.20;99.90;;;;;;5072182;28;20090;-90
2022/10/06 01:35:07;;;;;;;9.45;1.48;;;13.20;99.90;;;;;;5072383;28;20040;-90
2022/10/06 01:37:33;;;;;;;6.47;1.30;;;13.10;99.90;;;;;;5073242;28;20075;-90
2022/10/06 01:39:59;;;;;;;7.13;1.30;;;13.10;99.90;;;;;;5072004;28;20076;-90
2022/10/06 01:42:24;;;;;;;8.82;1.20;;;13.10;99.90;;;;;;5071768;28;20040;-90
2022/10/06 01:44:50;;;;;;;9.85;1.10;;;13.00;99.90;;;;;;5072041;28;20040;-90
2022/10/06 01:47:16;;;;;;;10.15;1.98;;;13.00;99.90;;;;;;5072152;28;20116;-90
2022/10/06 01:49:41;;;;;;;10.15;1.85;;;13.00;99.90;;;;;;5071861;28;20068;-90
2022/10/06 01:52:08;;;;;;;7.30;1.33;;;13.10;99.90;;;;;;5071301;28;20041;-90
2022/10/06 01:54:33;;;;;;;7.30;1.23;;;13.00;99.90;;;;;;5071827;28;20040;-90
2022/10/06 01:56:59;;;;;;;9.50;1.58;;;13.00;99.90;;;;;;5071692;28;20038;-90
2022/10/06 01:59:25;;;;;;;8.45;1.27;;;12.90;99.90;;;;;;5055296;28;20070;-90
2022/10/06 02:01:50;;;;;;;7.00;1.10;;;12.90;99.90;;;;;;5071771;28;20547;-90
2022/10/06 02:04:16;;;;;;;11.85;1.65;;;12.80;99.90;;;;;;5072151;28;20437;-90
2022/10/06 02:06:42;;;;;;;6.82;1.20;;;12.80;99.90;;;;;;5071405;28;20052;-90
2022/10/06 02:09:07;;;;;;;10.68;2.30;;;12.80;99.90;;;;;;5071595;28;20044;-90
2022/10/06 02:11:34;;;;;;;9.23;2.00;;;12.80;99.90;;;;;;5071053;28;20044;-90
2022/10/06 02:14:00;;;;;;;5.07;1.10;;;12.80;99.90;;;;;;5071359;28;20048;-90
2022/10/06 02:16:27;;;;;;;8.13;1.35;;;12.80;99.90;;;;;;5054946;28;20037;-90
2022/10/06 02:18:53;;;;;;;11.23;1.63;;;12.70;99.90;;;;;;5072857;28;20040;-90
2022/10/06 02:21:21;;;;;;;8.15;1.20;;;12.60;99.90;;;;;;5071040;28;20093;-90
2022/10/06 02:23:47;;;;;;;8.27;1.33;;;12.50;99.90;;;;;;5071358;28;20087;-90
2022/10/06 02:26:16;;;;;;;10.10;2.20;;;12.50;99.90;;;;;;5054576;28;20071;-90
2022/10/06 02:28:43;;;;;;;8.93;1.65;;;12.60;99.90;;;;;;5071326;28;20040;-90
2022/10/06 02:31:09;;;;;;;7.32;1.40;;;12.60;99.90;;;;;;5070972;28;20041;-90
2022/10/06 02:33:36;;;;;;;7.22;1.52;;;12.50;99.90;;;;;;5071178;28;20044;-90
2022/10/06 02:36:03;;;;;;;6.78;1.48;;;12.50;99.90;;;;;;5054199;28;20051;-90
2022/10/06 02:38:30;;;;;;;14.18;2.53;;;12.50;99.90;;;;;;5071159;28;20048;-90
2022/10/06 02:41:00;;;;;;;8.68;1.75;;;12.60;99.90;;;;;;5070886;28;20498;-90
2022/10/06 02:43:30;;;;;;;9.35;1.55;;;12.60;99.90;;;;;;5070926;28;20051;-90
2022/10/06 02:45:58;;;;;;;9.52;2.00;;;12.60;99.90;;;;;;5054410;28;20123;-90
2022/10/06 02:48:25;;;;;;;7.55;1.58;;;12.70;99.90;;;;;;5071281;28;20436;-90
2022/10/06 02:51:14;;;;;;;16.58;1.95;;;12.60;99.90;;;;;;5053504;28;20036;-90
2022/10/06 02:53:41;;;;;;;4.65;1.08;;;12.60;99.90;;;;;;5071215;28;20036;-90
2022/10/06 02:56:14;;;;;;;5.65;0.98;;;12.60;99.90;;;;;;5054379;28;20475;-90
2022/10/06 02:58:44;;;;;;;6.60;1.08;;;12.60;99.90;;;;;;5070635;28;20044;-90
2022/10/06 03:01:16;;;;;;;7.70;1.23;;;12.60;99.90;;;;;;5053734;28;20040;-90
2022/10/06 03:03:42;;;;;;;7.87;1.17;;;12.60;99.90;;;;;;5054565;28;20044;-90
2022/10/06 03:06:20;;;;;;;11.38;1.50;;;12.50;99.90;;;;;;5070372;28;20055;-90
2022/10/06 03:08:47;;;;;;;11.60;2.38;;;12.50;99.90;;;;;;5053344;28;20126;-90
2022/10/06 03:11:13;;;;;;;10.30;1.35;;;12.60;99.90;;;;;;5053591;28;20042;-90
2022/10/06 03:13:40;;;;;;;5.45;1.02;;;12.60;99.90;;;;;;5070388;28;20040;-90
2022/10/06 03:16:17;;;;;;;8.07;1.30;;;12.60;99.90;;;;;;5070573;28;20055;-90
2022/10/06 03:18:48;;;;;;;10.30;1.73;;;12.50;99.90;;;;;;5054057;28;20041;-91
2022/10/06 03:21:14;;;;;;;10.13;1.50;;;12.40;99.90;;;;;;5070075;28;20089;-89
2022/10/06 03:23:42;;;;;;;6.30;1.60;;;12.40;99.90;;;;;;5070514;28;20169;-90
2022/10/06 03:26:07;;;;;;;14.77;2.80;;;12.40;99.90;;;;;;5070534;28;20060;-90
2022/10/06 03:28:33;;;;;;;9.00;1.40;;;12.40;99.90;;;;;;5052896;28;20044;-90
2022/10/06 03:31:01;;;;;;;7.47;1.25;;;12.40;99.90;;;;;;5053271;28;20045;-90
2022/10/06 03:33:27;;;;;;;8.75;1.80;;;12.30;99.90;;;;;;5070624;28;20037;-90
2022/10/06 03:36:04;;;;;;;7.20;1.48;;;12.20;99.90;;;;;;5070191;28;20041;-90
2022/10/06 03:38:31;;;;;;;8.50;1.77;;;12.20;99.90;;;;;;5070569;28;20028;-90
2022/10/06 03:41:05;;;;;;;13.63;2.22;;;12.10;99.90;;;;;;5053216;28;20051;-90
2022/10/06 03:43:31;;;;;;;10.75;1.55;;;12.10;99.90;;;;;;5070215;28;20047;-90
2022/10/06 03:45:59;;;;;;;7.85;1.63;;;12.10;99.90;;;;;;5070462;28;20124;-90
2022/10/06 03:48:29;;;;;;;7.65;1.23;;;12.00;99.90;;;;;;5053842;28;20066;-90
2022/10/06 03:51:12;;;;;;;7.20;1.88;;;12.00;99.90;;;;;;5069683;28;20036;-89
2022/10/06 03:53:38;;;;;;;9.32;1.25;;;12.00;99.90;;;;;;5053658;28;20131;-90
2022/10/06 03:56:05;;;;;;;11.10;1.23;;;11.90;99.90;;;;;;5070264;28;20051;-90
2022/10/06 03:58:33;;;;;;;7.32;1.33;;;11.90;99.90;;;;;;5053447;28;20036;-90
2022/10/06 04:01:02;;;;;;;8.25;2.00;;;11.90;99.90;;;;;;5070155;28;20041;-90
2022/10/06 04:03:28;;;;;;;12.20;2.38;;;11.90;99.90;;;;;;5053588;28;20037;-90
2022/10/06 04:05:59;;;;;;;7.43;1.25;;;11.80;99.90;;;;;;5070127;28;20045;-90
2022/10/06 04:08:26;;;;;;;8.95;1.30;;;11.80;99.90;;;;;;5069944;28;20036;-90
2022/10/06 04:10:51;;;;;;;11.40;1.85;;;11.70;99.90;;;;;;5070028;28;20045;-90
2022/10/06 04:13:18;;;;;;;7.05;1.20;;;11.70;99.90;;;;;;5053152;28;20128;-90
2022/10/06 04:15:45;;;;;;;8.63;1.88;;;11.60;99.90;;;;;;5070031;28;20047;-90
2022/10/06 04:18:11;;;;;;;12.93;1.83;;;11.60;99.90;;;;;;5070148;28;20036;-90
2022/10/06 04:20:37;;;;;;;10.05;1.90;;;11.50;99.90;;;;;;5055461;28;20071;-90
2022/10/06 04:23:04;;;;;;;9.35;1.48;;;11.50;99.90;;;;;;5057087;28;20075;-90
2022/10/06 04:25:29;;;;;;;11.13;2.00;;;11.50;99.90;;;;;;5073544;28;20051;-90
2022/10/06 04:27:56;;;;;;;6.63;1.67;;;11.50;99.90;;;;;;5073251;28;20044;-90
2022/10/06 04:30:22;;;;;;;11.23;1.58;;;11.40;99.90;;;;;;5073581;28;20040;-90
2022/10/06 04:32:48;;;;;;;12.02;2.10;;;11.40;99.90;;;;;;5056688;28;20045;-90
2022/10/06 04:35:14;;;;;;;19.92;2.42;;;11.30;99.90;;;;;;5073285;28;20041;-90
2022/10/06 04:37:39;;;;;;;10.95;1.70;;;11.30;99.90;;;;;;5056761;28;20044;-90
2022/10/06 04:40:06;;;;;;;7.10;1.45;;;11.20;99.90;;;;;;5073439;28;20173;-90
2022/10/06 04:42:31;;;;;;;15.07;1.73;;;11.20;99.90;;;;;;5072598;28;20406;-90
2022/10/06 04:44:57;;;;;;;15.80;2.53;;;11.20;99.90;;;;;;5073359;28;20037;-90
2022/10/06 04:47:22;;;;;;;8.20;1.30;;;11.10;99.90;;;;;;5056618;28;20127;-90
2022/10/06 04:49:48;;;;;;;10.85;1.73;;;11.10;99.90;;;;;;5073068;28;20045;-90
2022/10/06 04:52:13;;;;;;;12.60;1.83;;;11.10;99.90;;;;;;5072740;28;20128;-90
2022/10/06 04:54:39;;;;;;;12.05;1.98;;;11.10;99.90;;;;;;5073374;28;20036;-89
2022/10/06 04:57:04;;;;;;;10.20;1.52;;;11.10;99.90;;;;;;5073029;28;20040;-90
2022/10/06 05:02:14;;;;;;;12.27;2.53;;;11.10;99.90;;;;;;5072849;28;20048;-90
2022/10/06 05:04:40;;;;;;;8.68;1.20;;;11.10;99.90;;;;;;5072840;28;20037;-90
2022/10/06 05:07:06;;;;;;;11.80;1.73;;;11.00;99.90;;;;;;5073365;28;20033;-90
2022/10/06 05:09:31;;;;;;;7.80;1.25;;;11.00;99.90;;;;;;5072888;28;20468;-90
2022/10/06 05:11:57;;;;;;;7.63;1.13;;;11.00;99.90;;;;;;5072268;28;20127;-90
2022/10/06 05:14:23;;;;;;;7.22;1.40;;;11.00;99.90;;;;;;5072917;28;20486;-90
2022/10/06 05:16:48;;;;;;;10.57;1.33;;;10.90;99.90;;;;;;5072516;28;20039;-90
2022/10/06 05:19:14;;;;;;;16.92;2.08;;;10.90;99.90;;;;;;5072722;28;20098;-89
2022/10/06 05:21:40;;;;;;;7.75;1.58;;;10.90;99.90;;;;;;5072191;28;20041;-89
2022/10/06 05:24:05;;;;;;;11.88;1.52;;;10.90;99.90;;;;;;5072692;28;20112;-90
2022/10/06 05:26:33;;;;;;;9.20;1.50;;;10.90;99.90;;;;;;5072376;28;20082;-90
2022/10/06 05:28:59;;;;;;;10.95;1.40;;;10.90;99.90;;;;;;5055780;28;20040;-89
2022/10/06 05:31:30;;;;;;;10.32;1.80;;;10.90;99.90;;;;;;5071299;28;20041;-90
2022/10/06 05:33:57;;;;;;;13.68;1.83;;;10.80;99.90;;;;;;5071991;28;20043;-89
2022/10/06 05:36:28;;;;;;;9.63;2.05;;;10.80;99.90;;;;;;5071892;28;20037;-90
2022/10/06 05:38:55;;;;;;;9.25;1.48;;;10.80;99.90;;;;;;5072102;28;20037;-90
2022/10/06 05:41:28;;;;;;;10.48;2.17;;;10.80;99.90;;;;;;5071820;28;20053;-89
2022/10/06 05:43:55;;;;;;;11.50;2.00;;;10.70;99.90;;;;;;5072098;28;20055;-90
2022/10/06 05:46:27;;;;;;;10.00;1.90;;;10.70;99.90;;;;;;5072175;28;20052;-89
2022/10/06 05:48:54;;;;;;;9.40;1.40;;;10.70;99.90;;;;;;5071797;28;20140;-89
2022/10/06 05:51:21;;;;;;;6.75;1.23;;;10.70;99.90;;;;;;5071569;28;20319;-89
2022/10/06 05:53:47;;;;;;;19.13;2.00;;;10.70;99.90;;;;;;5055589;28;20041;-89
2022/10/06 05:56:22;;;;;;;9.10;1.50;;;10.70;99.90;;;;;;5071668;28;20420;-89
2022/10/06 05:58:52;;;;;;;8.70;1.63;;;10.70;99.90;;;;;;5071876;28;20093;-89
2022/10/06 06:01:21;;;;;;;14.10;1.58;;;10.60;99.90;;;;;;5071818;28;20046;-89
2022/10/06 06:03:49;;;;;;;9.43;1.33;;;10.70;99.90;;;;;;5071510;28;20044;-89
2022/10/06 06:06:16;;;;;;;6.40;1.83;;;10.70;99.90;;;;;;5071654;28;20440;-89
2022/10/06 06:08:42;;;;;;;12.15;1.73;;;10.70;99.90;;;;;;5071231;28;20078;-90
2022/10/06 06:11:08;;;;;;;12.13;1.83;;;10.70;99.90;;;;;;5071017;28;20048;-90
2022/10/06 06:13:34;;;;;;;16.63;2.15;;;10.70;99.90;;;;;;5071764;28;20037;-89
2022/10/06 06:16:05;;;;;;;6.07;1.25;;;10.70;99.90;;;;;;5071380;28;20532;-89
2022/10/06 06:18:34;;;;;;;9.35;1.98;;;10.70;99.90;;;;;;5072583;28;20401;-90
2022/10/06 06:21:02;;;;;;;12.35;1.83;;;10.70;99.90;;;;;;5071089;28;20066;-89
2022/10/06 06:23:37;;;;;;;9.18;1.40;;;10.70;99.90;;;;;;5071208;28;20046;-89
2022/10/06 06:26:06;;;;;;;7.63;1.48;;;10.70;99.90;;;;;;5052565;28;20044;-89
2022/10/06 06:28:34;;;;;;;9.75;2.33;;;10.70;99.90;;;;;;5070970;28;20080;-90
2022/10/06 06:31:05;;;;;;;14.25;2.60;;;10.70;99.90;;;;;;5070561;28;20070;-90
2022/10/06 06:33:31;;;;;;;8.52;1.67;;;10.80;99.90;;;;;;5054197;28;20039;-90
2022/10/06 06:35:58;;;;;;;8.27;1.42;;;10.80;99.90;;;;;;5070634;28;20044;-90
2022/10/06 06:38:24;;;;;;;9.23;1.50;;;10.80;99.90;;;;;;5070791;28;20037;-90
2022/10/06 06:40:50;;;;;;;9.50;1.73;;;10.90;99.90;;;;;;5070579;28;20048;-90
2022/10/06 06:43:15;;;;;;;11.45;2.13;;;10.90;99.90;;;;;;5072037;28;20414;-90
2022/10/06 06:45:41;;;;;;;7.95;1.40;;;10.90;99.90;;;;;;5072107;28;20409;-90
2022/10/06 06:48:13;;;;;;;14.35;1.85;;;11.00;99.90;;;;;;5070367;28;20683;-90
2022/10/06 06:50:38;;;;;;;8.52;1.60;;;11.00;99.90;;;;;;5070232;28;20139;-90
2022/10/06 06:53:04;;;;;;;10.95;1.92;;;11.00;99.90;;;;;;5070224;28;20127;-89
2022/10/06 06:55:29;;;;;;;8.20;1.63;;;11.10;99.90;;;;;;5053588;28;20133;-89
2022/10/06 06:57:55;;;;;;;11.45;1.77;;;11.10;99.90;;;;;;5070467;28;20446;-89
2022/10/06 07:00:22;;;;;;;14.23;1.98;;;11.20;99.90;;;;;;5070350;28;20040;-90
2022/10/06 07:02:54;;;;;;;13.93;2.55;;;11.20;99.90;;;;;;5069922;28;20456;-90
2022/10/06 07:05:21;;;;;;;8.52;1.92;;;11.20;99.90;;;;;;5070351;28;20048;-90
2022/10/06 07:07:46;;;;;;;9.40;1.73;;;11.30;99.90;;;;;;5070190;28;20380;-90
2022/10/06 07:10:12;;;;;;;10.63;2.20;;;11.40;99.90;;;;;;5070361;28;20044;-90
2022/10/06 07:12:39;;;;;;;10.40;1.80;;;11.40;99.90;;;;;;5070021;28;20048;-90
2022/10/06 07:26:04;;;;;;;10.55;2.25;;;11.80;99.90;;;;;;5069454;28;20521;-90
2022/10/06 07:28:29;;;;;;;8.20;1.60;;;11.80;99.90;;;;;;5069803;28;20068;-89
2022/10/06 07:30:58;;;;;;;9.50;1.85;;;11.90;99.90;;;;;;5069348;28;20047;-90
2022/10/06 07:33:23;;;;;;;14.40;1.92;;;11.90;99.90;;;;;;5069782;28;20409;-90
2022/10/06 07:35:49;;;;;;;15.70;2.25;;;12.00;99.90;;;;;;5069743;28;20485;-89
2022/10/06 07:38:14;;;;;;;14.93;2.22;;;12.10;99.90;;;;;;5070906;28;20532;-90
2022/10/06 07:40:40;;;;;;;11.00;1.95;;;12.20;99.90;;;;;;5070607;28;20047;-90
2022/10/06 07:43:05;;;;;;;15.18;2.85;;;12.20;99.90;;;;;;5069197;28;20123;-90
2022/10/06 07:45:37;;;;;;;9.75;1.40;;;12.30;99.90;;;;;;5069625;28;20115;-90
2022/10/06 07:48:04;;;;;;;12.55;2.72;;;12.40;99.90;;;;;;5052399;28;20135;-90
2022/10/06 07:50:29;;;;;;;8.20;1.50;;;12.50;99.90;;;;;;5052993;28;20028;-90
2022/10/06 07:52:55;;;;;;;12.02;1.90;;;12.50;99.90;;;;;;5052186;28;20631;-90
2022/10/06 07:55:21;;;;;;;11.95;1.85;;;12.60;99.90;;;;;;5071401;28;20052;-90
2022/10/06 07:57:48;;;;;;;11.80;1.75;;;12.70;99.90;;;;;;5073589;28;20036;-90
2022/10/06 08:00:14;;;;;;;10.65;1.92;;;12.70;99.90;;;;;;5073249;28;20493;-90
2022/10/06 08:02:41;;;;;;;11.77;3.10;;;12.80;99.90;;;;;;5072828;28;20041;-90
2022/10/06 08:05:07;;;;;;;11.55;1.77;;;13.00;99.90;;;;;;5073295;28;20402;-91
2022/10/06 08:07:33;;;;;;;10.63;2.17;;;13.00;99.90;;;;;;5073014;28;20111;-90
2022/10/06 08:09:58;;;;;;;15.52;2.30;;;13.10;99.90;;;;;;5072540;28;20399;-90
2022/10/06 08:12:36;;;;;;;15.00;3.13;;;13.10;99.90;;;;;;5072660;28;20051;-90
2022/10/06 08:15:06;;;;;;;14.85;2.72;;;13.30;99.90;;;;;;5071823;28;20089;-90
2022/10/06 08:17:36;;;;;;;9.80;1.83;;;13.40;99.90;;;;;;5072197;28;20033;-90
2022/10/06 08:20:03;;;;;;;8.88;1.85;;;13.40;99.90;;;;;;5072534;28;20040;-90
2022/10/06 08:22:29;;;;;;;11.35;1.58;;;13.40;99.90;;;;;;5072503;28;20043;-90
2022/10/06 08:24:58;;;;;;;12.05;2.55;;;13.50;99.90;;;;;;5072946;28;20032;-90
2022/10/06 08:27:26;;;;;;;10.07;2.13;;;13.50;99.90;;;;;;5056447;28;20041;-89
2022/10/06 08:29:53;;;;;;;14.20;3.05;;;13.60;99.90;;;;;;5072056;28;20037;-90
2022/10/06 08:32:19;;;;;;;14.30;3.08;;;13.70;99.90;;;;;;5072034;28;20102;-90
2022/10/06 08:34:46;;;;;;;15.27;2.58;;;13.80;99.90;;;;;;5072872;28;20047;-89
2022/10/06 08:37:11;;;;;;;16.20;3.33;;;13.80;99.90;;;;;;5072656;28;20037;-90
2022/10/06 08:39:37;;;;;;;13.18;2.28;;;13.90;99.90;;;;;;5055317;28;20409;-90
2022/10/06 08:42:02;;;;;;;12.93;3.22;;;13.90;99.90;;;;;;5053826;28;20032;-90
2022/10/06 08:44:48;;;;;;;10.85;2.28;;;14.00;99.90;;;;;;5054267;28;20131;-90
2022/10/06 08:47:18;;;;;;;10.15;2.30;;;14.00;99.90;;;;;;5053695;28;20131;-90
2022/10/06 08:49:46;;;;;;;12.60;2.63;;;14.10;99.90;;;;;;5054528;28;20048;-91
2022/10/06 08:52:33;;;;;;;11.75;2.15;;;14.20;99.90;;;;;;5052935;28;20078;-90
2022/10/06 08:55:25;;;;;;;15.50;3.17;;;14.30;99.90;;;;;;5069401;28;20063;-90
2022/10/06 08:58:02;;;;;;;7.57;1.73;;;14.30;99.90;;;;;;5069309;28;20506;-91
2022/10/06 09:00:32;;;;;;;12.00;2.83;;;14.30;99.90;;;;;;5071711;28;20036;-90
2022/10/06 09:02:59;;;;;;;12.25;2.63;;;14.40;99.90;;;;;;5071724;28;20490;-90
2022/10/06 09:05:28;;;;;;;17.17;3.28;;;14.40;99.90;;;;;;5072086;28;20052;-91
2022/10/06 09:08:24;;;;;;;14.25;2.80;;;14.50;99.90;;;;;;5068333;28;20094;-90
2022/10/06 09:11:07;;;;;;;9.57;2.05;;;14.60;99.90;;;;;;5069171;28;20033;-90
2022/10/06 09:13:42;;;;;;;15.52;3.28;;;14.60;99.90;;;;;;5053470;28;20036;-90
2022/10/06 09:16:14;;;;;;;10.18;2.13;;;14.70;99.90;;;;;;5069164;28;20079;-90
2022/10/06 09:18:53;;;;;;;17.08;3.17;;;14.70;99.90;;;;;;5072035;28;20055;-90
2022/10/06 09:21:23;;;;;;;11.45;2.05;;;14.80;99.90;;;;;;5069906;28;20501;-90
2022/10/06 09:23:55;;;;;;;12.00;3.03;;;14.80;99.90;;;;;;5071368;28;20044;-90
2022/10/06 09:26:31;;;;;;;10.48;1.88;;;14.90;99.90;;;;;;5071832;28;20051;-90
2022/10/06 09:28:57;;;;;;;12.18;2.33;;;15.00;99.90;;;;;;5071081;28;20383;-90
2022/10/06 09:31:25;;;;;;;12.20;2.85;;;15.00;99.90;;;;;;5070430;28;20048;-90
2022/10/06 09:33:54;;;;;;;13.70;2.58;;;15.10;99.90;;;;;;5052338;28;20123;-90
2022/10/06 09:36:20;;;;;;;13.20;2.78;;;15.20;99.90;;;;;;5054788;28;20040;-90
2022/10/06 09:38:55;;;;;;;13.30;2.30;;;15.40;99.90;;;;;;5071260;28;20062;-91
2022/10/06 09:41:41;;;;;;;9.45;1.73;;;15.40;99.90;;;;;;5070884;28;20107;-90
2022/10/06 09:44:26;;;;;;;11.50;2.75;;;15.40;99.90;;;;;;5070728;28;20044;-91
2022/10/06 09:46:52;;;;;;;11.68;2.38;;;15.40;99.90;;;;;;5068928;28;20037;-90
2022/10/06 09:49:20;;;;;;;14.02;2.50;;;15.50;99.90;;;;;;5054546;28;20383;-91
2022/10/06 09:52:11;;;;;;;11.40;1.75;;;15.60;99.90;;;;;;5070214;28;20044;-90
2022/10/06 09:54:40;;;;;;;12.38;2.38;;;15.40;99.90;;;;;;5069576;28;20067;-91
2022/10/06 09:57:25;;;;;;;10.85;1.80;;;15.40;99.90;;;;;;5071126;28;20041;-90
2022/10/06 09:59:52;;;;;;;11.45;2.55;;;15.30;99.90;;;;;;5067645;28;20111;-90
2022/10/06 10:02:38;;;;;;;9.30;1.70;;;15.30;99.90;;;;;;5070780;28;20043;-90
2022/10/06 10:05:25;;;;;;;12.00;2.58;;;15.40;99.90;;;;;;5072790;28;20051;-90
2022/10/06 10:08:03;;;;;;;10.80;2.05;;;15.50;99.90;;;;;;5070063;28;20053;-90
2022/10/06 10:10:29;;;;;;;14.05;2.50;;;15.50;99.90;;;;;;5069456;28;20044;-90
2022/10/06 10:12:57;;;;;;;15.27;2.00;;;15.40;99.90;;;;;;5070844;28;20048;-91
2022/10/06 10:15:25;;;;;;;12.70;2.20;;;15.40;99.90;;;;;;5070725;28;20037;-90
2022/10/06 10:17:54;;;;;;;10.65;2.03;;;15.50;99.90;;;;;;5053670;28;20072;-91
2022/10/06 10:20:39;;;;;;;12.30;2.65;;;15.60;99.90;;;;;;5070281;28;20036;-90
2022/10/06 10:23:22;;;;;;;15.90;3.30;;;15.70;99.90;;;;;;5069191;28;20040;-90
2022/10/06 10:26:11;;;;;;;12.32;2.75;;;15.80;99.90;;;;;;5070945;28;20036;-90
2022/10/06 10:29:29;;;;;;;10.50;1.67;;;16.00;99.90;;;;;;5070608;28;20048;-90
2022/10/06 10:32:04;;;;;;;12.80;2.20;;;16.10;99.90;;;;;;5055043;28;20127;-90
2022/10/06 10:34:57;;;;;;;9.95;1.80;;;16.20;99.90;;;;;;5069872;28;20403;-90
2022/10/06 10:37:59;;;;;;;10.50;2.53;;;16.40;99.90;;;;;;5069066;28;20040;-90
2022/10/06 10:40:35;;;;;;;9.30;1.85;;;16.60;99.90;;;;;;5068589;28;20085;-90
2022/10/06 10:43:24;;;;;;;10.57;2.58;;;16.40;99.90;;;;;;5053558;28;20037;-91
2022/10/06 10:46:01;;;;;;;11.63;2.70;;;16.20;99.90;;;;;;5069412;28;20044;-90
2022/10/06 10:48:37;;;;;;;11.18;2.33;;;16.00;99.90;;;;;;5069873;28;20076;-91
2022/10/06 10:51:18;;;;;;;10.00;1.77;;;15.90;99.90;;;;;;5069113;28;20391;-90
2022/10/06 10:53:59;;;;;;;12.23;2.65;;;15.80;99.90;;;;;;5053310;28;20482;-91
2022/10/06 10:56:25;;;;;;;12.95;2.67;;;15.90;99.90;;;;;;5053692;28;20033;-90
2022/10/06 10:59:16;;;;;;;10.73;2.80;;;16.00;99.90;;;;;;5053112;28;20032;-91
2022/10/06 11:01:51;;;;;;;12.85;2.60;;;16.10;99.90;;;;;;5070161;28;20076;-90
2022/10/06 11:04:16;;;;;;;11.20;2.25;;;16.20;99.90;;;;;;5069772;28;20071;-90
2022/10/06 11:06:53;;;;;;;10.98;2.40;;;16.10;99.90;;;;;;5069310;28;20067;-91
2022/10/06 11:09:26;;;;;;;12.52;3.08;;;16.00;99.90;;;;;;5070169;28;20090;-90
2022/10/06 11:12:26;;;;;;;10.13;2.28;;;15.80;99.90;;;;;;5069218;28;20056;-90
2022/10/06 11:15:12;;;;;;;11.15;2.42;;;15.70;99.90;;;;;;5067167;28;20567;-90
2022/10/06 11:17:45;;;;;;;9.50;1.38;;;15.70;99.90;;;;;;5051665;28;20449;-91
2022/10/06 11:20:40;;;;;;;9.38;2.30;;;15.70;99.90;;;;;;5067114;28;20036;-91
2022/10/06 11:23:29;;;;;;;11.73;1.98;;;15.90;99.90;;;;;;5069001;28;20037;-91
2022/10/06 11:26:19;;;;;;;14.27;2.95;;;15.90;99.90;;;;;;5050890;28;20041;-91
2022/10/06 11:29:00;;;;;;;14.40;2.47;;;16.10;99.90;;;;;;5051012;28;20047;-91
2022/10/06 11:31:53;;;;;;;12.40;2.80;;;16.30;99.90;;;;;;5069316;28;20416;-91
2022/10/06 11:34:19;;;;;;;11.45;2.10;;;16.60;99.90;;;;;;5067952;28;20123;-90
2022/10/06 11:36:53;;;;;;;10.20;1.83;;;16.70;99.90;;;;;;5052593;28;20140;-91
2022/10/06 11:39:52;;;;;;;10.85;2.28;;;16.90;99.90;;;;;;5070088;28;20346;-91
2022/10/06 11:42:39;;;;;;;10.55;2.00;;;16.90;99.90;;;;;;5069230;28;20119;-91
2022/10/06 11:45:14;;;;;;;12.90;2.08;;;17.00;99.90;;;;;;5052825;28;20502;-90
2022/10/06 11:48:16;;;;;;;11.13;2.25;;;17.10;99.90;;;;;;5053052;28;20103;-91
2022/10/06 11:50:43;;;;;;;8.77;2.20;;;17.20;99.90;;;;;;5045697;28;20059;-92
2022/10/06 11:53:38;;;;;;;11.43;2.30;;;17.30;99.90;;;;;;5069378;28;20040;-91
2022/10/06 11:56:22;;;;;;;12.93;2.63;;;17.30;97.70;;;;;;5069671;28;20072;-90
2022/10/06 11:58:50;;;;;;;10.60;2.38;;;17.40;95.30;;;;;;5068862;28;20089;-90
2022/10/06 12:01:35;;;;;;;10.18;1.98;;;17.40;96.30;;;;;;5069297;28;20077;-91
2022/10/06 12:04:21;;;;;;;11.68;2.10;;;17.60;98.00;;;;;;5069603;28;20413;-90
2022/10/06 12:06:46;;;;;;;11.65;2.47;;;17.50;95.90;;;;;;5052577;28;20127;-91
2022/10/06 12:09:40;;;;;;;11.80;1.90;;;17.50;96.80;;;;;;5069099;28;20154;-91
2022/10/06 12:12:16;;;;;;;9.98;1.85;;;17.60;96.60;;;;;;5049877;28;20055;-90
2022/10/06 12:14:51;;;;;;;10.10;2.05;;;17.60;92.10;;;;;;5069303;28;20075;-91
2022/10/06 12:17:20;;;;;;;9.50;1.98;;;17.70;92.10;;;;;;5052596;28;20036;-91
2022/10/06 12:20:24;;;;;;;8.65;1.80;;;17.70;93.50;;;;;;5052421;28;20090;-90
2022/10/06 12:22:56;;;;;;;9.77;2.10;;;17.80;92.90;;;;;;5069209;28;20040;-91
2022/10/06 12:25:40;;;;;;;10.65;1.77;;;17.80;91.30;;;;;;5052722;28;20094;-91
2022/10/06 12:28:35;;;;;;;10.38;2.10;;;17.80;95.20;;;;;;5051966;28;20029;-91
2022/10/06 12:31:21;;;;;;;9.65;2.05;;;17.90;93.80;;;;;;5069112;28;20120;-90
2022/10/06 12:33:47;;;;;;;13.88;2.40;;;17.90;93.70;;;;;;5069253;28;20039;-91
2022/10/06 12:36:17;;;;;;;12.75;2.40;;;18.00;94.50;;;;;;5052091;28;20045;-91
2022/10/06 12:39:03;;;;;;;12.80;2.22;;;17.90;94.70;;;;;;5069054;28;20493;-90
2022/10/06 12:42:01;;;;;;;10.27;2.00;;;17.90;95.60;;;;;;5071107;28;20055;-91
2022/10/06 12:44:32;;;;;;;10.85;2.10;;;18.00;94.20;;;;;;5056140;28;20119;-91
2022/10/06 12:47:08;;;;;;;8.90;1.80;;;18.20;91.30;;;;;;5055860;28;20040;-91
2022/10/06 12:50:04;;;;;;;10.05;1.80;;;18.30;91.00;;;;;;5072396;28;20490;-91
2022/10/06 12:52:39;;;;;;;8.20;2.05;;;18.40;81.80;;;;;;5072137;28;20064;-91
2022/10/06 12:55:31;;;;;;;8.77;1.88;;;18.40;82.50;;;;;;5072356;28;20131;-91
2022/10/06 12:57:56;;;;;;;9.30;2.00;;;18.70;80.50;;;;;;5071750;28;20159;-91
2022/10/06 13:00:38;;;;;;;9.82;1.90;;;19.30;78.10;;;;;;5072705;28;20489;-91
2022/10/06 13:03:07;;;;;;;10.65;1.52;;;20.20;71.50;;;;;;5055452;28;20515;-91
2022/10/06 13:05:35;;;;;;;8.05;1.55;;;21.20;69.30;;;;;;5055356;28;20029;-90
2022/10/06 13:08:02;;;;;;;8.95;1.90;;;21.90;62.40;;;;;;5072210;28;20135;-91
2022/10/06 13:10:28;;;;;;;7.20;1.50;;;22.60;61.00;;;;;;5072205;28;20067;-91
2022/10/06 13:12:56;;;;;;;8.90;1.73;;;22.80;58.00;;;;;;5055115;28;20090;-91
2022/10/06 13:15:39;;;;;;;8.43;1.40;;;23.10;57.50;;;;;;5072175;28;20044;-92